<?xml version="1.0" encoding="UTF-8"?>
<gpx xmlns="http://www.topografix.com/GPX/1/1" creator="GPSies http://www.gpsies.com - Dad-liw" version="1.1" xmlns:xsi="http://www.w3.org/2001/XMLSchema-instance" xsi:schemaLocation="http://www.topografix.com/GPX/1/1 http://www.topografix.com/GPX/1/1/gpx.xsd">
  <metadata>
    <name>Dad-liw</name>
    <copyright author="GPSies.com" />
    <link href="http://www.gpsies.com/">
      <text>Dad-liw on GPSies.com</text>
    </link>
    <time>2008-03-08T20:56:50Z</time>
  </metadata>
  <trk>
    <name>Dad-liw on GPSies.com</name>
    <trkseg>
      <trkpt lat="13.87032500" lon="14.26282000">
        <ele>23.200000</ele>
        <time>2008-03-08T20:56:50Z</time>
      </trkpt>
      <trkpt lat="13.87036333" lon="14.26267500">
        <ele>22.600000</ele>
        <time>2008-03-08T20:56:56Z</time>
      </trkpt>
      <trkpt lat="13.87057666" lon="14.26248333">
        <ele>23.600000</ele>
        <time>2008-03-08T20:57:07Z</time>
      </trkpt>
      <trkpt lat="13.87154500" lon="14.26029000">
        <ele>7.9000000</ele>
        <time>2008-03-08T20:58:41Z</time>
      </trkpt>
      <trkpt lat="13.87162000" lon="14.25969833">
        <ele>12.500000</ele>
        <time>2008-03-08T20:59:04Z</time>
      </trkpt>
      <trkpt lat="13.87184166" lon="14.25928333">
        <ele>11.500000</ele>
        <time>2008-03-08T20:59:23Z</time>
      </trkpt>
      <trkpt lat="13.87284666" lon="14.25858000">
        <ele>13.400000</ele>
        <time>2008-03-08T21:00:11Z</time>
      </trkpt>
      <trkpt lat="13.87301833" lon="14.25827333">
        <ele>14.600000</ele>
        <time>2008-03-08T21:00:25Z</time>
      </trkpt>
      <trkpt lat="13.87829166" lon="14.25497500">
        <ele>26.200000</ele>
        <time>2008-03-08T21:04:32Z</time>
      </trkpt>
      <trkpt lat="13.87892166" lon="14.25515000">
        <ele>122.20000</ele>
        <time>2008-03-08T21:04:58Z</time>
      </trkpt>
      <trkpt lat="13.87958000" lon="14.25501833">
        <ele>178.10000</ele>
        <time>2008-03-08T21:05:25Z</time>
      </trkpt>
      <trkpt lat="13.88403000" lon="14.25266500">
        <ele>222.30000</ele>
        <time>2008-03-08T21:08:45Z</time>
      </trkpt>
      <trkpt lat="13.88442000" lon="14.25203000">
        <ele>226.60000</ele>
        <time>2008-03-08T21:09:14Z</time>
      </trkpt>
      <trkpt lat="13.89911666" lon="14.24041000">
        <ele>210.80000</ele>
        <time>2008-03-08T21:21:36Z</time>
      </trkpt>
      <trkpt lat="13.89920666" lon="14.24042000">
        <ele>210.70000</ele>
        <time>2008-03-08T21:21:40Z</time>
      </trkpt>
      <trkpt lat="13.89950000" lon="14.24040666">
        <ele>209.60000</ele>
        <time>2008-03-08T21:21:51Z</time>
      </trkpt>
      <trkpt lat="13.90085666" lon="14.23982666">
        <ele>208.20000</ele>
        <time>2008-03-08T21:22:50Z</time>
      </trkpt>
      <trkpt lat="13.90115666" lon="14.23983833">
        <ele>205.90000</ele>
        <time>2008-03-08T21:23:02Z</time>
      </trkpt>
      <trkpt lat="13.90131000" lon="14.23981166">
        <ele>206.20000</ele>
        <time>2008-03-08T21:23:09Z</time>
      </trkpt>
      <trkpt lat="13.90163500" lon="14.23961000">
        <ele>207.90000</ele>
        <time>2008-03-08T21:23:24Z</time>
      </trkpt>
      <trkpt lat="13.90171833" lon="14.23950166">
        <ele>209.30000</ele>
        <time>2008-03-08T21:23:29Z</time>
      </trkpt>
      <trkpt lat="13.90175000" lon="14.23939500">
        <ele>210.70000</ele>
        <time>2008-03-08T21:23:33Z</time>
      </trkpt>
      <trkpt lat="13.90173500" lon="14.23908500">
        <ele>212.80000</ele>
        <time>2008-03-08T21:23:45Z</time>
      </trkpt>
      <trkpt lat="13.90182666" lon="14.23887833">
        <ele>210.70000</ele>
        <time>2008-03-08T21:23:54Z</time>
      </trkpt>
      <trkpt lat="13.90216666" lon="14.23857000">
        <ele>209.30000</ele>
        <time>2008-03-08T21:24:12Z</time>
      </trkpt>
      <trkpt lat="13.90251166" lon="14.23852000">
        <ele>202.90000</ele>
        <time>2008-03-08T21:24:26Z</time>
      </trkpt>
      <trkpt lat="13.90261500" lon="14.23853333">
        <ele>200.00000</ele>
        <time>2008-03-08T21:24:31Z</time>
      </trkpt>
      <trkpt lat="13.90526666" lon="14.23979500">
        <ele>195.10000</ele>
        <time>2008-03-08T21:26:27Z</time>
      </trkpt>
      <trkpt lat="13.90600500" lon="14.23964666">
        <ele>200.00000</ele>
        <time>2008-03-08T21:26:58Z</time>
      </trkpt>
      <trkpt lat="13.90655333" lon="14.23970166">
        <ele>199.50000</ele>
        <time>2008-03-08T21:27:20Z</time>
      </trkpt>
      <trkpt lat="13.90668166" lon="14.23969333">
        <ele>199.20000</ele>
        <time>2008-03-08T21:27:25Z</time>
      </trkpt>
      <trkpt lat="13.90717666" lon="14.23979000">
        <ele>198.80000</ele>
        <time>2008-03-08T21:27:45Z</time>
      </trkpt>
      <trkpt lat="13.90806166" lon="14.23970833">
        <ele>199.30000</ele>
        <time>2008-03-08T21:28:21Z</time>
      </trkpt>
      <trkpt lat="13.90833500" lon="14.23972666">
        <ele>199.20000</ele>
        <time>2008-03-08T21:28:31Z</time>
      </trkpt>
      <trkpt lat="13.91030333" lon="14.23880833">
        <ele>201.70000</ele>
        <time>2008-03-08T21:29:58Z</time>
      </trkpt>
      <trkpt lat="13.91076166" lon="14.23818000">
        <ele>201.70000</ele>
        <time>2008-03-08T21:30:29Z</time>
      </trkpt>
      <trkpt lat="13.91652166" lon="14.23688000">
        <ele>187.90000</ele>
        <time>2008-03-08T21:34:25Z</time>
      </trkpt>
      <trkpt lat="13.91746666" lon="14.23585500">
        <ele>178.60000</ele>
        <time>2008-03-08T21:35:19Z</time>
      </trkpt>
      <trkpt lat="13.91794833" lon="14.23568500">
        <ele>207.60000</ele>
        <time>2008-03-08T21:35:40Z</time>
      </trkpt>
      <trkpt lat="13.91837000" lon="14.23606833">
        <ele>270.40000</ele>
        <time>2008-03-08T21:36:02Z</time>
      </trkpt>
      <trkpt lat="13.91846833" lon="14.23600666">
        <ele>292.10000</ele>
        <time>2008-03-08T21:36:07Z</time>
      </trkpt>
      <trkpt lat="13.92002666" lon="14.23332833">
        <ele>318.50000</ele>
        <time>2008-03-08T21:38:08Z</time>
      </trkpt>
      <trkpt lat="13.92110166" lon="14.23248000">
        <ele>318.10000</ele>
        <time>2008-03-08T21:39:03Z</time>
      </trkpt>
      <trkpt lat="13.92100833" lon="14.23235666">
        <ele>307.50000</ele>
        <time>2008-03-08T21:39:09Z</time>
      </trkpt>
      <trkpt lat="13.92151666" lon="14.23227333">
        <ele>311.10000</ele>
        <time>2008-03-08T21:39:29Z</time>
      </trkpt>
      <trkpt lat="13.92232000" lon="14.23243833">
        <ele>314.80000</ele>
        <time>2008-03-08T21:40:02Z</time>
      </trkpt>
      <trkpt lat="13.92262500" lon="14.23241666">
        <ele>315.90000</ele>
        <time>2008-03-08T21:40:14Z</time>
      </trkpt>
      <trkpt lat="13.92326333" lon="14.23247500">
        <ele>313.30000</ele>
        <time>2008-03-08T21:40:40Z</time>
      </trkpt>
      <trkpt lat="13.92381166" lon="14.23237833">
        <ele>312.60000</ele>
        <time>2008-03-08T21:41:02Z</time>
      </trkpt>
      <trkpt lat="13.92372666" lon="14.23222666">
        <ele>303.00000</ele>
        <time>2008-03-08T21:41:09Z</time>
      </trkpt>
      <trkpt lat="13.92424500" lon="14.23188500">
        <ele>308.70000</ele>
        <time>2008-03-08T21:41:34Z</time>
      </trkpt>
      <trkpt lat="13.92415000" lon="14.23173166">
        <ele>300.60000</ele>
        <time>2008-03-08T21:41:41Z</time>
      </trkpt>
      <trkpt lat="13.92716166" lon="14.23126666">
        <ele>292.80000</ele>
        <time>2008-03-08T21:43:43Z</time>
      </trkpt>
      <trkpt lat="13.92719833" lon="14.23118000">
        <ele>302.60000</ele>
        <time>2008-03-08T21:43:46Z</time>
      </trkpt>
      <trkpt lat="13.92706166" lon="14.23122500">
        <ele>308.70000</ele>
        <time>2008-03-08T21:43:52Z</time>
      </trkpt>
      <trkpt lat="13.92716000" lon="14.23119333">
        <ele>306.50000</ele>
        <time>2008-03-08T21:43:56Z</time>
      </trkpt>
      <trkpt lat="13.92705500" lon="14.23117166">
        <ele>285.90000</ele>
        <time>2008-03-08T21:44:00Z</time>
      </trkpt>
      <trkpt lat="13.92689500" lon="14.23100500">
        <ele>276.50000</ele>
        <time>2008-03-08T21:44:09Z</time>
      </trkpt>
      <trkpt lat="13.92664000" lon="14.23095333">
        <ele>250.00000</ele>
        <time>2008-03-08T21:44:20Z</time>
      </trkpt>
      <trkpt lat="13.92673666" lon="14.23095833">
        <ele>213.20000</ele>
        <time>2008-03-08T21:44:24Z</time>
      </trkpt>
      <trkpt lat="13.92699666" lon="14.23094500">
        <ele>214.50000</ele>
        <time>2008-03-08T21:44:34Z</time>
      </trkpt>
      <trkpt lat="13.92708333" lon="14.23110000">
        <ele>246.20000</ele>
        <time>2008-03-08T21:44:41Z</time>
      </trkpt>
      <trkpt lat="13.92638333" lon="14.23086166">
        <ele>284.50000</ele>
        <time>2008-03-08T21:45:11Z</time>
      </trkpt>
      <trkpt lat="13.92638000" lon="14.23095666">
        <ele>236.80000</ele>
        <time>2008-03-08T21:45:14Z</time>
      </trkpt>
      <trkpt lat="13.92646833" lon="14.23092666">
        <ele>196.70000</ele>
        <time>2008-03-08T21:45:18Z</time>
      </trkpt>
      <trkpt lat="13.92636833" lon="14.23083666">
        <ele>258.00000</ele>
        <time>2008-03-08T21:45:23Z</time>
      </trkpt>
      <trkpt lat="13.92652666" lon="14.23100500">
        <ele>238.70000</ele>
        <time>2008-03-08T21:45:32Z</time>
      </trkpt>
      <trkpt lat="13.92679333" lon="14.23100666">
        <ele>217.80000</ele>
        <time>2008-03-08T21:45:43Z</time>
      </trkpt>
      <trkpt lat="13.92693333" lon="14.23096833">
        <ele>201.50000</ele>
        <time>2008-03-08T21:45:49Z</time>
      </trkpt>
      <trkpt lat="13.92691166" lon="14.23087500">
        <ele>183.20000</ele>
        <time>2008-03-08T21:45:53Z</time>
      </trkpt>
      <trkpt lat="13.92695000" lon="14.23077500">
        <ele>157.00000</ele>
        <time>2008-03-08T21:45:57Z</time>
      </trkpt>
      <trkpt lat="13.92690666" lon="14.23087833">
        <ele>190.10000</ele>
        <time>2008-03-08T21:46:01Z</time>
      </trkpt>
      <trkpt lat="13.92693166" lon="14.23109666">
        <ele>283.80000</ele>
        <time>2008-03-08T21:46:10Z</time>
      </trkpt>
      <trkpt lat="13.92672000" lon="14.23098166">
        <ele>306.10000</ele>
        <time>2008-03-08T21:46:19Z</time>
      </trkpt>
      <trkpt lat="13.92686666" lon="14.23091666">
        <ele>202.40000</ele>
        <time>2008-03-08T21:46:26Z</time>
      </trkpt>
    </trkseg>
    <trkseg>
      <trkpt lat="13.92635000" lon="14.23088000">
        <ele>0.0000000</ele>
        <time>2008-03-08T20:56:50Z</time>
      </trkpt>
      <trkpt lat="13.92643333" lon="14.23083666">
        <ele>289.20000</ele>
        <time>2008-03-08T20:56:54Z</time>
      </trkpt>
      <trkpt lat="13.92652000" lon="14.23068833">
        <ele>288.20000</ele>
        <time>2008-03-08T20:57:01Z</time>
      </trkpt>
      <trkpt lat="13.92675333" lon="14.23055333">
        <ele>285.10000</ele>
        <time>2008-03-08T20:57:11Z</time>
      </trkpt>
      <trkpt lat="13.93011833" lon="14.23016833">
        <ele>289.80000</ele>
        <time>2008-03-08T20:59:27Z</time>
      </trkpt>
      <trkpt lat="13.93048166" lon="14.23018166">
        <ele>288.50000</ele>
        <time>2008-03-08T20:59:42Z</time>
      </trkpt>
      <trkpt lat="13.93114000" lon="14.23005833">
        <ele>288.60000</ele>
        <time>2008-03-08T21:00:08Z</time>
      </trkpt>
      <trkpt lat="13.93366833" lon="14.22865833">
        <ele>287.20000</ele>
        <time>2008-03-08T21:02:03Z</time>
      </trkpt>
      <trkpt lat="13.93410833" lon="14.22871333">
        <ele>242.60000</ele>
        <time>2008-03-08T21:02:21Z</time>
      </trkpt>
      <trkpt lat="13.93758833" lon="14.22624000">
        <ele>188.10000</ele>
        <time>2008-03-08T21:05:10Z</time>
      </trkpt>
      <trkpt lat="13.93987000" lon="14.22336000">
        <ele>224.40000</ele>
        <time>2008-03-08T21:07:35Z</time>
      </trkpt>
      <trkpt lat="13.94055833" lon="14.22137666">
        <ele>233.90000</ele>
        <time>2008-03-08T21:08:56Z</time>
      </trkpt>
      <trkpt lat="13.94181833" lon="14.21989333">
        <ele>251.80000</ele>
        <time>2008-03-08T21:10:13Z</time>
      </trkpt>
      <trkpt lat="13.94275166" lon="14.21931333">
        <ele>233.90000</ele>
        <time>2008-03-08T21:10:57Z</time>
      </trkpt>
      <trkpt lat="13.94490166" lon="14.21655333">
        <ele>240.50000</ele>
        <time>2008-03-08T21:13:14Z</time>
      </trkpt>
      <trkpt lat="13.95124166" lon="14.21374000">
        <ele>185.30000</ele>
        <time>2008-03-08T21:17:51Z</time>
      </trkpt>
      <trkpt lat="13.95185500" lon="14.21322000">
        <ele>173.00000</ele>
        <time>2008-03-08T21:18:22Z</time>
      </trkpt>
      <trkpt lat="13.95970333" lon="14.20962333">
        <ele>166.90000</ele>
        <time>2008-03-08T21:24:06Z</time>
      </trkpt>
      <trkpt lat="13.96013833" lon="14.20921166">
        <ele>168.40000</ele>
        <time>2008-03-08T21:24:30Z</time>
      </trkpt>
      <trkpt lat="13.96451833" lon="14.20758333">
        <ele>168.40000</ele>
        <time>2008-03-08T21:27:36Z</time>
      </trkpt>
      <trkpt lat="13.96922833" lon="14.20377833">
        <ele>182.70000</ele>
        <time>2008-03-08T21:31:36Z</time>
      </trkpt>
      <trkpt lat="13.97497333" lon="14.20142666">
        <ele>176.50000</ele>
        <time>2008-03-08T21:35:43Z</time>
      </trkpt>
      <trkpt lat="13.98076000" lon="14.19686666">
        <ele>175.40000</ele>
        <time>2008-03-08T21:40:35Z</time>
      </trkpt>
      <trkpt lat="13.98152333" lon="14.19680500">
        <ele>169.70000</ele>
        <time>2008-03-08T21:41:05Z</time>
      </trkpt>
      <trkpt lat="13.98232333" lon="14.19687500">
        <ele>178.70000</ele>
        <time>2008-03-08T21:41:38Z</time>
      </trkpt>
      <trkpt lat="13.98252000" lon="14.19687166">
        <ele>176.70000</ele>
        <time>2008-03-08T21:41:46Z</time>
      </trkpt>
      <trkpt lat="13.98325666" lon="14.19689833">
        <ele>183.10000</ele>
        <time>2008-03-08T21:42:15Z</time>
      </trkpt>
      <trkpt lat="13.98349500" lon="14.19686833">
        <ele>180.50000</ele>
        <time>2008-03-08T21:42:25Z</time>
      </trkpt>
      <trkpt lat="13.98395166" lon="14.19656500">
        <ele>182.30000</ele>
        <time>2008-03-08T21:42:46Z</time>
      </trkpt>
      <trkpt lat="13.98423333" lon="14.19651500">
        <ele>184.90000</ele>
        <time>2008-03-08T21:42:58Z</time>
      </trkpt>
      <trkpt lat="13.98443000" lon="14.19638833">
        <ele>189.00000</ele>
        <time>2008-03-08T21:43:07Z</time>
      </trkpt>
      <trkpt lat="13.99073666" lon="14.18562833">
        <ele>281.30000</ele>
        <time>2008-03-08T21:51:15Z</time>
      </trkpt>
      <trkpt lat="13.99394666" lon="14.18349500">
        <ele>239.70000</ele>
        <time>2008-03-08T21:53:48Z</time>
      </trkpt>
      <trkpt lat="13.99444000" lon="14.18343833">
        <ele>254.90000</ele>
        <time>2008-03-08T21:54:08Z</time>
      </trkpt>
      <trkpt lat="13.99493333" lon="14.18349666">
        <ele>259.40000</ele>
        <time>2008-03-08T21:54:28Z</time>
      </trkpt>
      <trkpt lat="13.99591833" lon="14.18341000">
        <ele>272.00000</ele>
        <time>2008-03-08T21:55:08Z</time>
      </trkpt>
      <trkpt lat="14.00223166" lon="14.18643166">
        <ele>203.80000</ele>
        <time>2008-03-08T21:59:46Z</time>
      </trkpt>
      <trkpt lat="14.00378333" lon="14.18620166">
        <ele>189.40000</ele>
        <time>2008-03-08T22:00:49Z</time>
      </trkpt>
      <trkpt lat="14.00529500" lon="14.18524833">
        <ele>191.10000</ele>
        <time>2008-03-08T22:02:00Z</time>
      </trkpt>
      <trkpt lat="14.00588666" lon="14.18519500">
        <ele>186.60000</ele>
        <time>2008-03-08T22:02:24Z</time>
      </trkpt>
      <trkpt lat="14.00764333" lon="14.18534000">
        <ele>196.30000</ele>
        <time>2008-03-08T22:03:34Z</time>
      </trkpt>
      <trkpt lat="14.00875333" lon="14.18577000">
        <ele>201.10000</ele>
        <time>2008-03-08T22:04:22Z</time>
      </trkpt>
      <trkpt lat="14.00896166" lon="14.18577833">
        <ele>204.60000</ele>
        <time>2008-03-08T22:04:30Z</time>
      </trkpt>
      <trkpt lat="14.00906666" lon="14.18577000">
        <ele>208.40000</ele>
        <time>2008-03-08T22:04:34Z</time>
      </trkpt>
      <trkpt lat="14.00916833" lon="14.18577666">
        <ele>205.70000</ele>
        <time>2008-03-08T22:04:38Z</time>
      </trkpt>
      <trkpt lat="14.01034000" lon="14.18540666">
        <ele>208.40000</ele>
        <time>2008-03-08T22:05:27Z</time>
      </trkpt>
      <trkpt lat="14.01287166" lon="14.18580333">
        <ele>218.10000</ele>
        <time>2008-03-08T22:07:10Z</time>
      </trkpt>
      <trkpt lat="14.01297666" lon="14.18579666">
        <ele>222.20000</ele>
        <time>2008-03-08T22:07:14Z</time>
      </trkpt>
      <trkpt lat="14.01315666" lon="14.18581666">
        <ele>217.50000</ele>
        <time>2008-03-08T22:07:21Z</time>
      </trkpt>
      <trkpt lat="14.01462333" lon="14.18558166">
        <ele>194.70000</ele>
        <time>2008-03-08T22:08:21Z</time>
      </trkpt>
      <trkpt lat="14.01485666" lon="14.18558500">
        <ele>188.70000</ele>
        <time>2008-03-08T22:08:30Z</time>
      </trkpt>
      <trkpt lat="14.01498500" lon="14.18558500">
        <ele>184.20000</ele>
        <time>2008-03-08T22:08:35Z</time>
      </trkpt>
      <trkpt lat="14.01728000" lon="14.18609000">
        <ele>198.10000</ele>
        <time>2008-03-08T22:10:09Z</time>
      </trkpt>
      <trkpt lat="14.02222000" lon="14.18462500">
        <ele>195.50000</ele>
        <time>2008-03-08T22:13:35Z</time>
      </trkpt>
      <trkpt lat="14.02372000" lon="14.18495666">
        <ele>234.80000</ele>
        <time>2008-03-08T22:14:36Z</time>
      </trkpt>
      <trkpt lat="14.02522000" lon="14.18477166">
        <ele>229.70000</ele>
        <time>2008-03-08T22:15:37Z</time>
      </trkpt>
      <trkpt lat="14.04653500" lon="14.17100500">
        <ele>211.30000</ele>
        <time>2008-03-08T22:32:24Z</time>
      </trkpt>
      <trkpt lat="14.04736333" lon="14.17103333">
        <ele>200.90000</ele>
        <time>2008-03-08T22:32:57Z</time>
      </trkpt>
      <trkpt lat="14.04839166" lon="14.17095666">
        <ele>176.60000</ele>
        <time>2008-03-08T22:33:38Z</time>
      </trkpt>
      <trkpt lat="14.05518666" lon="14.16698333">
        <ele>236.40000</ele>
        <time>2008-03-08T22:38:51Z</time>
      </trkpt>
      <trkpt lat="14.05615000" lon="14.16564000">
        <ele>249.90000</ele>
        <time>2008-03-08T22:39:56Z</time>
      </trkpt>
      <trkpt lat="14.05816333" lon="14.15981333">
        <ele>223.90000</ele>
        <time>2008-03-08T22:43:56Z</time>
      </trkpt>
      <trkpt lat="14.06045500" lon="14.15667166">
        <ele>238.60000</ele>
        <time>2008-03-08T22:46:29Z</time>
      </trkpt>
      <trkpt lat="14.06233333" lon="14.15568000">
        <ele>219.70000</ele>
        <time>2008-03-08T22:47:53Z</time>
      </trkpt>
      <trkpt lat="14.06252666" lon="14.15542333">
        <ele>229.60000</ele>
        <time>2008-03-08T22:48:06Z</time>
      </trkpt>
      <trkpt lat="14.06254833" lon="14.15221833">
        <ele>212.80000</ele>
        <time>2008-03-08T22:50:10Z</time>
      </trkpt>
      <trkpt lat="14.06280833" lon="14.15196500">
        <ele>222.80000</ele>
        <time>2008-03-08T22:50:25Z</time>
      </trkpt>
      <trkpt lat="14.06299000" lon="14.15195333">
        <ele>223.70000</ele>
        <time>2008-03-08T22:50:32Z</time>
      </trkpt>
      <trkpt lat="14.06612000" lon="14.15242000">
        <ele>229.00000</ele>
        <time>2008-03-08T22:52:38Z</time>
      </trkpt>
      <trkpt lat="14.06634000" lon="14.15241333">
        <ele>229.30000</ele>
        <time>2008-03-08T22:52:47Z</time>
      </trkpt>
      <trkpt lat="14.06664666" lon="14.15242500">
        <ele>225.70000</ele>
        <time>2008-03-08T22:52:59Z</time>
      </trkpt>
      <trkpt lat="14.06859666" lon="14.15226833">
        <ele>211.70000</ele>
        <time>2008-03-08T22:54:18Z</time>
      </trkpt>
      <trkpt lat="14.06892666" lon="14.15227333">
        <ele>213.10000</ele>
        <time>2008-03-08T22:54:31Z</time>
      </trkpt>
      <trkpt lat="14.07056666" lon="14.15219833">
        <ele>209.20000</ele>
        <time>2008-03-08T22:55:37Z</time>
      </trkpt>
      <trkpt lat="14.07086500" lon="14.15223666">
        <ele>213.60000</ele>
        <time>2008-03-08T22:55:49Z</time>
      </trkpt>
      <trkpt lat="14.07097333" lon="14.15223500">
        <ele>217.30000</ele>
        <time>2008-03-08T22:55:53Z</time>
      </trkpt>
      <trkpt lat="14.07176333" lon="14.15236333">
        <ele>232.70000</ele>
        <time>2008-03-08T22:56:25Z</time>
      </trkpt>
      <trkpt lat="14.07194333" lon="14.15234000">
        <ele>228.40000</ele>
        <time>2008-03-08T22:56:32Z</time>
      </trkpt>
      <trkpt lat="14.07264166" lon="14.15202000">
        <ele>232.80000</ele>
        <time>2008-03-08T22:57:03Z</time>
      </trkpt>
      <trkpt lat="14.07325333" lon="14.15195166">
        <ele>222.40000</ele>
        <time>2008-03-08T22:57:28Z</time>
      </trkpt>
      <trkpt lat="14.07358500" lon="14.15197000">
        <ele>219.30000</ele>
        <time>2008-03-08T22:57:41Z</time>
      </trkpt>
      <trkpt lat="14.07378500" lon="14.15193500">
        <ele>214.70000</ele>
        <time>2008-03-08T22:57:49Z</time>
      </trkpt>
      <trkpt lat="14.07548666" lon="14.15077500">
        <ele>240.70000</ele>
        <time>2008-03-08T22:59:11Z</time>
      </trkpt>
      <trkpt lat="14.08144500" lon="14.14234000">
        <ele>238.70000</ele>
        <time>2008-03-08T23:05:56Z</time>
      </trkpt>
      <trkpt lat="14.09292166" lon="14.13066166">
        <ele>242.80000</ele>
        <time>2008-03-08T23:16:41Z</time>
      </trkpt>
      <trkpt lat="14.09433833" lon="14.13040166">
        <ele>233.00000</ele>
        <time>2008-03-08T23:17:39Z</time>
      </trkpt>
      <trkpt lat="14.09614666" lon="14.13074166">
        <ele>235.90000</ele>
        <time>2008-03-08T23:18:52Z</time>
      </trkpt>
      <trkpt lat="14.10026000" lon="14.12896166">
        <ele>249.00000</ele>
        <time>2008-03-08T23:21:51Z</time>
      </trkpt>
      <trkpt lat="14.10379166" lon="14.12515166">
        <ele>237.20000</ele>
        <time>2008-03-08T23:25:16Z</time>
      </trkpt>
      <trkpt lat="14.10420833" lon="14.12495000">
        <ele>238.80000</ele>
        <time>2008-03-08T23:25:34Z</time>
      </trkpt>
      <trkpt lat="14.10518500" lon="14.12512166">
        <ele>231.90000</ele>
        <time>2008-03-08T23:26:14Z</time>
      </trkpt>
      <trkpt lat="14.10544333" lon="14.12500833">
        <ele>233.60000</ele>
        <time>2008-03-08T23:26:25Z</time>
      </trkpt>
      <trkpt lat="14.10654833" lon="14.12347666">
        <ele>240.20000</ele>
        <time>2008-03-08T23:27:39Z</time>
      </trkpt>
      <trkpt lat="14.10657833" lon="14.12330166">
        <ele>239.40000</ele>
        <time>2008-03-08T23:27:46Z</time>
      </trkpt>
      <trkpt lat="14.10619000" lon="14.12229333">
        <ele>246.10000</ele>
        <time>2008-03-08T23:28:28Z</time>
      </trkpt>
      <trkpt lat="14.10631666" lon="14.12177000">
        <ele>203.50000</ele>
        <time>2008-03-08T23:28:49Z</time>
      </trkpt>
      <trkpt lat="14.10646666" lon="14.12160000">
        <ele>208.10000</ele>
        <time>2008-03-08T23:28:58Z</time>
      </trkpt>
      <trkpt lat="14.10732833" lon="14.12110166">
        <ele>210.30000</ele>
        <time>2008-03-08T23:29:38Z</time>
      </trkpt>
      <trkpt lat="14.10778500" lon="14.12113500">
        <ele>203.50000</ele>
        <time>2008-03-08T23:29:56Z</time>
      </trkpt>
      <trkpt lat="14.10937333" lon="14.12032833">
        <ele>232.30000</ele>
        <time>2008-03-08T23:31:07Z</time>
      </trkpt>
      <trkpt lat="14.11288833" lon="14.11266833">
        <ele>150.20000</ele>
        <time>2008-03-08T23:36:36Z</time>
      </trkpt>
      <trkpt lat="14.11575500" lon="14.11040500">
        <ele>234.30000</ele>
        <time>2008-03-08T23:39:00Z</time>
      </trkpt>
      <trkpt lat="14.11585833" lon="14.11025000">
        <ele>232.70000</ele>
        <time>2008-03-08T23:39:08Z</time>
      </trkpt>
      <trkpt lat="14.11622333" lon="14.10883166">
        <ele>195.10000</ele>
        <time>2008-03-08T23:40:05Z</time>
      </trkpt>
      <trkpt lat="14.11619166" lon="14.10807500">
        <ele>236.80000</ele>
        <time>2008-03-08T23:40:34Z</time>
      </trkpt>
      <trkpt lat="14.11862833" lon="14.09335833">
        <ele>139.00000</ele>
        <time>2008-03-08T23:50:14Z</time>
      </trkpt>
      <trkpt lat="14.12106833" lon="14.09060333">
        <ele>183.90000</ele>
        <time>2008-03-08T23:52:38Z</time>
      </trkpt>
      <trkpt lat="14.12419333" lon="14.08882500">
        <ele>233.00000</ele>
        <time>2008-03-08T23:55:01Z</time>
      </trkpt>
      <trkpt lat="14.12531500" lon="14.08857333">
        <ele>231.20000</ele>
        <time>2008-03-08T23:55:47Z</time>
      </trkpt>
      <trkpt lat="14.12565166" lon="14.08827666">
        <ele>227.60000</ele>
        <time>2008-03-08T23:56:05Z</time>
      </trkpt>
      <trkpt lat="14.12571833" lon="14.08811833">
        <ele>227.20000</ele>
        <time>2008-03-08T23:56:12Z</time>
      </trkpt>
      <trkpt lat="14.12532666" lon="14.08689166">
        <ele>237.90000</ele>
        <time>2008-03-08T23:57:02Z</time>
      </trkpt>
      <trkpt lat="14.12543666" lon="14.08626166">
        <ele>227.40000</ele>
        <time>2008-03-08T23:57:27Z</time>
      </trkpt>
      <trkpt lat="14.12653000" lon="14.08475333">
        <ele>183.80000</ele>
        <time>2008-03-08T23:58:40Z</time>
      </trkpt>
      <trkpt lat="14.12715166" lon="14.08060833">
        <ele>223.60000</ele>
        <time>2008-03-09T00:01:23Z</time>
      </trkpt>
      <trkpt lat="14.12831500" lon="14.07869000">
        <ele>161.30000</ele>
        <time>2008-03-09T00:02:50Z</time>
      </trkpt>
      <trkpt lat="14.13450333" lon="14.07416666">
        <ele>241.50000</ele>
        <time>2008-03-09T00:07:54Z</time>
      </trkpt>
      <trkpt lat="14.13456500" lon="14.07401833">
        <ele>236.60000</ele>
        <time>2008-03-09T00:08:00Z</time>
      </trkpt>
      <trkpt lat="14.13443000" lon="14.07333666">
        <ele>272.80000</ele>
        <time>2008-03-09T00:08:27Z</time>
      </trkpt>
      <trkpt lat="14.13527666" lon="14.07264500">
        <ele>233.00000</ele>
        <time>2008-03-09T00:09:10Z</time>
      </trkpt>
      <trkpt lat="14.13518333" lon="14.07239666">
        <ele>255.90000</ele>
        <time>2008-03-09T00:09:21Z</time>
      </trkpt>
      <trkpt lat="14.13503666" lon="14.07225500">
        <ele>273.20000</ele>
        <time>2008-03-09T00:09:29Z</time>
      </trkpt>
      <trkpt lat="14.13438000" lon="14.07023333">
        <ele>255.70000</ele>
        <time>2008-03-09T00:10:52Z</time>
      </trkpt>
      <trkpt lat="14.13683666" lon="14.06670166">
        <ele>255.90000</ele>
        <time>2008-03-09T00:13:40Z</time>
      </trkpt>
      <trkpt lat="14.13681500" lon="14.06629833">
        <ele>265.60000</ele>
        <time>2008-03-09T00:13:56Z</time>
      </trkpt>
      <trkpt lat="14.13801166" lon="14.06424000">
        <ele>257.10000</ele>
        <time>2008-03-09T00:15:29Z</time>
      </trkpt>
      <trkpt lat="14.13801166" lon="14.06388666">
        <ele>271.40000</ele>
        <time>2008-03-09T00:15:43Z</time>
      </trkpt>
      <trkpt lat="14.13834666" lon="14.06279666">
        <ele>276.80000</ele>
        <time>2008-03-09T00:16:27Z</time>
      </trkpt>
      <trkpt lat="14.13839833" lon="14.06271833">
        <ele>273.10000</ele>
        <time>2008-03-09T00:16:31Z</time>
      </trkpt>
      <trkpt lat="14.13850833" lon="14.06225333">
        <ele>277.30000</ele>
        <time>2008-03-09T00:16:50Z</time>
      </trkpt>
      <trkpt lat="14.13850000" lon="14.06212833">
        <ele>278.50000</ele>
        <time>2008-03-09T00:16:54Z</time>
      </trkpt>
      <trkpt lat="14.13875333" lon="14.06191666">
        <ele>261.90000</ele>
        <time>2008-03-09T00:17:07Z</time>
      </trkpt>
      <trkpt lat="14.14047500" lon="14.06128500">
        <ele>242.10000</ele>
        <time>2008-03-09T00:18:21Z</time>
      </trkpt>
      <trkpt lat="14.14062666" lon="14.06107833">
        <ele>242.70000</ele>
        <time>2008-03-09T00:18:31Z</time>
      </trkpt>
      <trkpt lat="14.14062000" lon="14.06079500">
        <ele>244.40000</ele>
        <time>2008-03-09T00:18:42Z</time>
      </trkpt>
      <trkpt lat="14.13979500" lon="14.05937666">
        <ele>244.70000</ele>
        <time>2008-03-09T00:19:46Z</time>
      </trkpt>
      <trkpt lat="14.13973166" lon="14.05886000">
        <ele>253.60000</ele>
        <time>2008-03-09T00:20:06Z</time>
      </trkpt>
      <trkpt lat="14.13977666" lon="14.05861000">
        <ele>261.90000</ele>
        <time>2008-03-09T00:20:16Z</time>
      </trkpt>
      <trkpt lat="14.13996833" lon="14.05831500">
        <ele>256.70000</ele>
        <time>2008-03-09T00:20:30Z</time>
      </trkpt>
      <trkpt lat="14.14116666" lon="14.04526000">
        <ele>275.60000</ele>
        <time>2008-03-09T00:28:59Z</time>
      </trkpt>
      <trkpt lat="14.14125000" lon="14.04511333">
        <ele>276.50000</ele>
        <time>2008-03-09T00:29:05Z</time>
      </trkpt>
      <trkpt lat="14.14257500" lon="14.04405666">
        <ele>203.80000</ele>
        <time>2008-03-09T00:30:12Z</time>
      </trkpt>
      <trkpt lat="14.14579666" lon="14.03949833">
        <ele>156.20000</ele>
        <time>2008-03-09T00:33:51Z</time>
      </trkpt>
      <trkpt lat="14.14530000" lon="14.03720833">
        <ele>220.20000</ele>
        <time>2008-03-09T00:35:22Z</time>
      </trkpt>
      <trkpt lat="14.14458000" lon="14.03593333">
        <ele>184.00000</ele>
        <time>2008-03-09T00:36:20Z</time>
      </trkpt>
      <trkpt lat="14.14395833" lon="14.03262833">
        <ele>238.30000</ele>
        <time>2008-03-09T00:38:30Z</time>
      </trkpt>
      <trkpt lat="14.14388000" lon="14.03256500">
        <ele>252.50000</ele>
        <time>2008-03-09T00:38:34Z</time>
      </trkpt>
      <trkpt lat="14.14379166" lon="14.03109166">
        <ele>199.10000</ele>
        <time>2008-03-09T00:39:32Z</time>
      </trkpt>
      <trkpt lat="14.14386833" lon="14.03088000">
        <ele>211.80000</ele>
        <time>2008-03-09T00:39:40Z</time>
      </trkpt>
      <trkpt lat="14.14583666" lon="14.02938666">
        <ele>191.40000</ele>
        <time>2008-03-09T00:41:18Z</time>
      </trkpt>
      <trkpt lat="14.14615333" lon="14.02841000">
        <ele>223.10000</ele>
        <time>2008-03-09T00:41:58Z</time>
      </trkpt>
      <trkpt lat="14.14609666" lon="14.02770500">
        <ele>269.30000</ele>
        <time>2008-03-09T00:42:26Z</time>
      </trkpt>
      <trkpt lat="14.14681833" lon="14.02596833">
        <ele>266.20000</ele>
        <time>2008-03-09T00:43:39Z</time>
      </trkpt>
      <trkpt lat="14.15014166" lon="14.02259833">
        <ele>192.50000</ele>
        <time>2008-03-09T00:46:46Z</time>
      </trkpt>
      <trkpt lat="14.15147666" lon="14.02189333">
        <ele>192.30000</ele>
        <time>2008-03-09T00:47:46Z</time>
      </trkpt>
      <trkpt lat="14.15178833" lon="14.02151666">
        <ele>192.50000</ele>
        <time>2008-03-09T00:48:05Z</time>
      </trkpt>
      <trkpt lat="14.15183166" lon="14.02141166">
        <ele>205.70000</ele>
        <time>2008-03-09T00:48:09Z</time>
      </trkpt>
      <trkpt lat="14.15142333" lon="14.02171500">
        <ele>266.10000</ele>
        <time>2008-03-09T00:48:29Z</time>
      </trkpt>
      <trkpt lat="14.15127666" lon="14.02174833">
        <ele>280.60000</ele>
        <time>2008-03-09T00:48:35Z</time>
      </trkpt>
      <trkpt lat="14.15124166" lon="14.02165000">
        <ele>281.60000</ele>
        <time>2008-03-09T00:48:40Z</time>
      </trkpt>
      <trkpt lat="14.15174500" lon="14.02099166">
        <ele>236.20000</ele>
        <time>2008-03-09T00:49:12Z</time>
      </trkpt>
      <trkpt lat="14.15211833" lon="14.02084333">
        <ele>194.40000</ele>
        <time>2008-03-09T00:49:28Z</time>
      </trkpt>
      <trkpt lat="14.15222833" lon="14.02084666">
        <ele>189.40000</ele>
        <time>2008-03-09T00:49:32Z</time>
      </trkpt>
      <trkpt lat="14.15230166" lon="14.02090500">
        <ele>196.70000</ele>
        <time>2008-03-09T00:49:36Z</time>
      </trkpt>
      <trkpt lat="14.15415500" lon="14.01968833">
        <ele>191.90000</ele>
        <time>2008-03-09T00:51:04Z</time>
      </trkpt>
      <trkpt lat="14.15548166" lon="14.01928666">
        <ele>196.40000</ele>
        <time>2008-03-09T00:51:59Z</time>
      </trkpt>
      <trkpt lat="14.16267000" lon="14.01229333">
        <ele>232.50000</ele>
        <time>2008-03-09T00:58:35Z</time>
      </trkpt>
      <trkpt lat="14.16277000" lon="14.01197500">
        <ele>265.10000</ele>
        <time>2008-03-09T00:58:48Z</time>
      </trkpt>
      <trkpt lat="14.16413833" lon="14.01017500">
        <ele>200.70000</ele>
        <time>2008-03-09T01:00:17Z</time>
      </trkpt>
      <trkpt lat="14.16431500" lon="14.00837666">
        <ele>225.00000</ele>
        <time>2008-03-09T01:01:27Z</time>
      </trkpt>
      <trkpt lat="14.16413166" lon="14.00751666">
        <ele>212.60000</ele>
        <time>2008-03-09T01:02:01Z</time>
      </trkpt>
      <trkpt lat="14.16403833" lon="14.00749166">
        <ele>226.10000</ele>
        <time>2008-03-09T01:02:05Z</time>
      </trkpt>
      <trkpt lat="14.16336166" lon="14.00597000">
        <ele>200.10000</ele>
        <time>2008-03-09T01:03:10Z</time>
      </trkpt>
      <trkpt lat="14.16670000" lon="13.99527833">
        <ele>264.60000</ele>
        <time>2008-03-09T01:10:26Z</time>
      </trkpt>
      <trkpt lat="14.16982166" lon="13.99300500">
        <ele>200.70000</ele>
        <time>2008-03-09T01:12:59Z</time>
      </trkpt>
      <trkpt lat="14.16940000" lon="13.99083666">
        <ele>280.30000</ele>
        <time>2008-03-09T01:14:25Z</time>
      </trkpt>
      <trkpt lat="14.16994166" lon="13.98807166">
        <ele>283.10000</ele>
        <time>2008-03-09T01:16:14Z</time>
      </trkpt>
      <trkpt lat="14.17008833" lon="13.98779666">
        <ele>282.00000</ele>
        <time>2008-03-09T01:16:26Z</time>
      </trkpt>
      <trkpt lat="14.17475666" lon="13.98467666">
        <ele>195.30000</ele>
        <time>2008-03-09T01:20:09Z</time>
      </trkpt>
      <trkpt lat="14.17480666" lon="13.98415166">
        <ele>205.20000</ele>
        <time>2008-03-09T01:20:30Z</time>
      </trkpt>
      <trkpt lat="14.17410166" lon="13.98211000">
        <ele>186.70000</ele>
        <time>2008-03-09T01:21:54Z</time>
      </trkpt>
      <trkpt lat="14.17431333" lon="13.98062666">
        <ele>222.00000</ele>
        <time>2008-03-09T01:22:52Z</time>
      </trkpt>
      <trkpt lat="14.17591166" lon="13.97795166">
        <ele>231.80000</ele>
        <time>2008-03-09T01:24:54Z</time>
      </trkpt>
      <trkpt lat="14.18073500" lon="13.97406166">
        <ele>199.00000</ele>
        <time>2008-03-09T01:28:59Z</time>
      </trkpt>
      <trkpt lat="14.18101833" lon="13.97245500">
        <ele>257.60000</ele>
        <time>2008-03-09T01:30:02Z</time>
      </trkpt>
      <trkpt lat="14.19660333" lon="13.96389833">
        <ele>176.10000</ele>
        <time>2008-03-09T01:41:49Z</time>
      </trkpt>
      <trkpt lat="14.19694500" lon="13.96392333">
        <ele>211.40000</ele>
        <time>2008-03-09T01:42:03Z</time>
      </trkpt>
      <trkpt lat="14.19704833" lon="13.96384000">
        <ele>231.80000</ele>
        <time>2008-03-09T01:42:08Z</time>
      </trkpt>
      <trkpt lat="14.19729166" lon="13.96336000">
        <ele>270.50000</ele>
        <time>2008-03-09T01:42:29Z</time>
      </trkpt>
      <trkpt lat="14.19851666" lon="13.96252833">
        <ele>284.40000</ele>
        <time>2008-03-09T01:43:28Z</time>
      </trkpt>
      <trkpt lat="14.19866333" lon="13.96252166">
        <ele>284.40000</ele>
        <time>2008-03-09T01:43:34Z</time>
      </trkpt>
      <trkpt lat="14.19946333" lon="13.96260000">
        <ele>287.40000</ele>
        <time>2008-03-09T01:44:06Z</time>
      </trkpt>
      <trkpt lat="14.19996500" lon="13.96228166">
        <ele>179.80000</ele>
        <time>2008-03-09T01:44:29Z</time>
      </trkpt>
      <trkpt lat="14.19989000" lon="13.96240666">
        <ele>192.50000</ele>
        <time>2008-03-09T01:44:35Z</time>
      </trkpt>
      <trkpt lat="14.19962333" lon="13.96252166">
        <ele>232.00000</ele>
        <time>2008-03-09T01:44:47Z</time>
      </trkpt>
      <trkpt lat="14.19997833" lon="13.96229500">
        <ele>182.80000</ele>
        <time>2008-03-09T01:45:03Z</time>
      </trkpt>
      <trkpt lat="14.20009500" lon="13.96228166">
        <ele>176.90000</ele>
        <time>2008-03-09T01:45:08Z</time>
      </trkpt>
      <trkpt lat="14.20026500" lon="13.96229166">
        <ele>174.70000</ele>
        <time>2008-03-09T01:45:15Z</time>
      </trkpt>
      <trkpt lat="14.20121333" lon="13.96204333">
        <ele>266.30000</ele>
        <time>2008-03-09T01:45:54Z</time>
      </trkpt>
      <trkpt lat="14.20145500" lon="13.96206166">
        <ele>276.60000</ele>
        <time>2008-03-09T01:46:04Z</time>
      </trkpt>
      <trkpt lat="14.20409833" lon="13.96161000">
        <ele>288.60000</ele>
        <time>2008-03-09T01:47:51Z</time>
      </trkpt>
      <trkpt lat="14.21863333" lon="13.95009500">
        <ele>288.10000</ele>
        <time>2008-03-09T02:00:05Z</time>
      </trkpt>
      <trkpt lat="14.22074500" lon="13.94887666">
        <ele>286.70000</ele>
        <time>2008-03-09T02:01:41Z</time>
      </trkpt>
      <trkpt lat="14.22221833" lon="13.94507666">
        <ele>290.70000</ele>
        <time>2008-03-09T02:04:20Z</time>
      </trkpt>
      <trkpt lat="14.22301500" lon="13.94437000">
        <ele>290.20000</ele>
        <time>2008-03-09T02:05:02Z</time>
      </trkpt>
      <trkpt lat="14.22949833" lon="13.94199333">
        <ele>290.20000</ele>
        <time>2008-03-09T02:09:38Z</time>
      </trkpt>
      <trkpt lat="14.23453833" lon="13.93748500">
        <ele>290.20000</ele>
        <time>2008-03-09T02:14:05Z</time>
      </trkpt>
      <trkpt lat="14.23526833" lon="13.93735666">
        <ele>291.30000</ele>
        <time>2008-03-09T02:14:34Z</time>
      </trkpt>
      <trkpt lat="14.23548833" lon="13.93718166">
        <ele>291.80000</ele>
        <time>2008-03-09T02:14:46Z</time>
      </trkpt>
      <trkpt lat="14.23631666" lon="13.93597500">
        <ele>290.90000</ele>
        <time>2008-03-09T02:15:43Z</time>
      </trkpt>
      <trkpt lat="14.23774333" lon="13.92982666">
        <ele>285.30000</ele>
        <time>2008-03-09T02:19:48Z</time>
      </trkpt>
      <trkpt lat="14.23753333" lon="13.92679833">
        <ele>280.70000</ele>
        <time>2008-03-09T02:21:46Z</time>
      </trkpt>
      <trkpt lat="14.23879000" lon="13.92412166">
        <ele>281.20000</ele>
        <time>2008-03-09T02:23:41Z</time>
      </trkpt>
      <trkpt lat="14.23878666" lon="13.92399666">
        <ele>282.20000</ele>
        <time>2008-03-09T02:23:46Z</time>
      </trkpt>
      <trkpt lat="14.23939000" lon="13.92270000">
        <ele>198.70000</ele>
        <time>2008-03-09T02:24:42Z</time>
      </trkpt>
      <trkpt lat="14.23957666" lon="13.92250666">
        <ele>233.10000</ele>
        <time>2008-03-09T02:24:53Z</time>
      </trkpt>
      <trkpt lat="14.23961333" lon="13.92240166">
        <ele>243.10000</ele>
        <time>2008-03-09T02:24:57Z</time>
      </trkpt>
      <trkpt lat="14.23871333" lon="13.91746500">
        <ele>288.90000</ele>
        <time>2008-03-09T02:28:12Z</time>
      </trkpt>
      <trkpt lat="14.23905333" lon="13.91638166">
        <ele>289.40000</ele>
        <time>2008-03-09T02:28:56Z</time>
      </trkpt>
      <trkpt lat="14.23892166" lon="13.91585333">
        <ele>289.70000</ele>
        <time>2008-03-09T02:29:17Z</time>
      </trkpt>
      <trkpt lat="14.24250833" lon="13.90415500">
        <ele>286.50000</ele>
        <time>2008-03-09T02:37:13Z</time>
      </trkpt>
      <trkpt lat="14.24445833" lon="13.90117333">
        <ele>284.50000</ele>
        <time>2008-03-09T02:39:33Z</time>
      </trkpt>
      <trkpt lat="14.24504500" lon="13.88785833">
        <ele>285.90000</ele>
        <time>2008-03-09T02:48:10Z</time>
      </trkpt>
      <trkpt lat="14.24547500" lon="13.88664333">
        <ele>284.80000</ele>
        <time>2008-03-09T02:49:00Z</time>
      </trkpt>
      <trkpt lat="14.24549333" lon="13.88480833">
        <ele>283.30000</ele>
        <time>2008-03-09T02:50:11Z</time>
      </trkpt>
      <trkpt lat="14.24451166" lon="13.88188000">
        <ele>276.90000</ele>
        <time>2008-03-09T02:52:12Z</time>
      </trkpt>
      <trkpt lat="14.24484166" lon="13.87994166">
        <ele>282.90000</ele>
        <time>2008-03-09T02:53:28Z</time>
      </trkpt>
      <trkpt lat="14.24612333" lon="13.87784333">
        <ele>283.50000</ele>
        <time>2008-03-09T02:55:04Z</time>
      </trkpt>
      <trkpt lat="14.24561666" lon="13.87282833">
        <ele>277.60000</ele>
        <time>2008-03-09T02:58:20Z</time>
      </trkpt>
      <trkpt lat="14.24697666" lon="13.86318666">
        <ele>112.50000</ele>
        <time>2008-03-09T03:04:38Z</time>
      </trkpt>
      <trkpt lat="14.24693500" lon="13.86256666">
        <ele>167.10000</ele>
        <time>2008-03-09T03:05:02Z</time>
      </trkpt>
      <trkpt lat="14.24779166" lon="13.85965333">
        <ele>122.00000</ele>
        <time>2008-03-09T03:07:00Z</time>
      </trkpt>
      <trkpt lat="14.24776000" lon="13.85940166">
        <ele>185.50000</ele>
        <time>2008-03-09T03:07:10Z</time>
      </trkpt>
      <trkpt lat="14.24820666" lon="13.85813833">
        <ele>148.00000</ele>
        <time>2008-03-09T03:08:02Z</time>
      </trkpt>
      <trkpt lat="14.24829666" lon="13.85805500">
        <ele>167.90000</ele>
        <time>2008-03-09T03:08:07Z</time>
      </trkpt>
      <trkpt lat="14.25321000" lon="13.85642333">
        <ele>257.30000</ele>
        <time>2008-03-09T03:11:34Z</time>
      </trkpt>
      <trkpt lat="14.25448500" lon="13.85545500">
        <ele>243.60000</ele>
        <time>2008-03-09T03:12:37Z</time>
      </trkpt>
      <trkpt lat="14.25590666" lon="13.85250833">
        <ele>221.90000</ele>
        <time>2008-03-09T03:14:45Z</time>
      </trkpt>
      <trkpt lat="14.25593833" lon="13.85226166">
        <ele>193.70000</ele>
        <time>2008-03-09T03:14:54Z</time>
      </trkpt>
      <trkpt lat="14.25586333" lon="13.85220166">
        <ele>205.10000</ele>
        <time>2008-03-09T03:14:58Z</time>
      </trkpt>
      <trkpt lat="14.25549333" lon="13.85162166">
        <ele>247.00000</ele>
        <time>2008-03-09T03:15:25Z</time>
      </trkpt>
      <trkpt lat="14.25561166" lon="13.85124000">
        <ele>211.90000</ele>
        <time>2008-03-09T03:15:41Z</time>
      </trkpt>
      <trkpt lat="14.25524666" lon="13.85044666">
        <ele>254.80000</ele>
        <time>2008-03-09T03:16:15Z</time>
      </trkpt>
      <trkpt lat="14.25522000" lon="13.85017333">
        <ele>256.60000</ele>
        <time>2008-03-09T03:16:25Z</time>
      </trkpt>
      <trkpt lat="14.25525166" lon="13.85005333">
        <ele>238.40000</ele>
        <time>2008-03-09T03:16:30Z</time>
      </trkpt>
      <trkpt lat="14.25525833" lon="13.84927833">
        <ele>246.90000</ele>
        <time>2008-03-09T03:17:00Z</time>
      </trkpt>
      <trkpt lat="14.25531000" lon="13.84919166">
        <ele>232.70000</ele>
        <time>2008-03-09T03:17:04Z</time>
      </trkpt>
      <trkpt lat="14.25546500" lon="13.84796333">
        <ele>252.50000</ele>
        <time>2008-03-09T03:17:52Z</time>
      </trkpt>
      <trkpt lat="14.25558666" lon="13.84776500">
        <ele>258.20000</ele>
        <time>2008-03-09T03:18:01Z</time>
      </trkpt>
      <trkpt lat="14.25558666" lon="13.84759666">
        <ele>261.40000</ele>
        <time>2008-03-09T03:18:08Z</time>
      </trkpt>
      <trkpt lat="14.25267833" lon="13.84358500">
        <ele>280.00000</ele>
        <time>2008-03-09T03:21:22Z</time>
      </trkpt>
      <trkpt lat="14.25431166" lon="13.83869833">
        <ele>292.00000</ele>
        <time>2008-03-09T03:24:43Z</time>
      </trkpt>
      <trkpt lat="14.25358166" lon="13.83694000">
        <ele>288.10000</ele>
        <time>2008-03-09T03:25:57Z</time>
      </trkpt>
      <trkpt lat="14.25257500" lon="13.83594833">
        <ele>292.30000</ele>
        <time>2008-03-09T03:26:53Z</time>
      </trkpt>
      <trkpt lat="14.25209000" lon="13.83481833">
        <ele>288.70000</ele>
        <time>2008-03-09T03:27:41Z</time>
      </trkpt>
      <trkpt lat="14.25205166" lon="13.83416500">
        <ele>295.60000</ele>
        <time>2008-03-09T03:28:06Z</time>
      </trkpt>
      <trkpt lat="14.25217000" lon="13.83392333">
        <ele>285.60000</ele>
        <time>2008-03-09T03:28:17Z</time>
      </trkpt>
      <trkpt lat="14.25212833" lon="13.83378166">
        <ele>285.30000</ele>
        <time>2008-03-09T03:28:22Z</time>
      </trkpt>
      <trkpt lat="14.25213166" lon="13.83355333">
        <ele>285.10000</ele>
        <time>2008-03-09T03:28:31Z</time>
      </trkpt>
      <trkpt lat="14.25359833" lon="13.83031000">
        <ele>291.70000</ele>
        <time>2008-03-09T03:30:50Z</time>
      </trkpt>
      <trkpt lat="14.25367666" lon="13.83025666">
        <ele>289.20000</ele>
        <time>2008-03-09T03:30:54Z</time>
      </trkpt>
      <trkpt lat="14.25455833" lon="13.82878000">
        <ele>290.00000</ele>
        <time>2008-03-09T03:32:01Z</time>
      </trkpt>
      <trkpt lat="14.25458666" lon="13.82866333">
        <ele>284.80000</ele>
        <time>2008-03-09T03:32:06Z</time>
      </trkpt>
      <trkpt lat="14.25465333" lon="13.82859666">
        <ele>285.90000</ele>
        <time>2008-03-09T03:32:09Z</time>
      </trkpt>
      <trkpt lat="14.25500500" lon="13.82502166">
        <ele>317.00000</ele>
        <time>2008-03-09T03:34:29Z</time>
      </trkpt>
      <trkpt lat="14.25497833" lon="13.82490333">
        <ele>319.70000</ele>
        <time>2008-03-09T03:34:34Z</time>
      </trkpt>
      <trkpt lat="14.25472333" lon="13.82459000">
        <ele>290.40000</ele>
        <time>2008-03-09T03:34:49Z</time>
      </trkpt>
      <trkpt lat="14.25386000" lon="13.82413833">
        <ele>310.70000</ele>
        <time>2008-03-09T03:35:28Z</time>
      </trkpt>
      <trkpt lat="14.25243000" lon="13.82402000">
        <ele>287.30000</ele>
        <time>2008-03-09T03:36:26Z</time>
      </trkpt>
      <trkpt lat="14.25230666" lon="13.82393666">
        <ele>293.50000</ele>
        <time>2008-03-09T03:36:32Z</time>
      </trkpt>
      <trkpt lat="14.25223833" lon="13.82382333">
        <ele>299.50000</ele>
        <time>2008-03-09T03:36:37Z</time>
      </trkpt>
      <trkpt lat="14.25221666" lon="13.82369666">
        <ele>303.80000</ele>
        <time>2008-03-09T03:36:42Z</time>
      </trkpt>
      <trkpt lat="14.25262500" lon="13.82155166">
        <ele>269.30000</ele>
        <time>2008-03-09T03:38:07Z</time>
      </trkpt>
      <trkpt lat="14.25258666" lon="13.82139333">
        <ele>267.80000</ele>
        <time>2008-03-09T03:38:13Z</time>
      </trkpt>
      <trkpt lat="14.25263833" lon="13.82123666">
        <ele>272.10000</ele>
        <time>2008-03-09T03:38:19Z</time>
      </trkpt>
      <trkpt lat="14.25262166" lon="13.82109000">
        <ele>278.70000</ele>
        <time>2008-03-09T03:38:25Z</time>
      </trkpt>
      <trkpt lat="14.25256000" lon="13.82095500">
        <ele>288.00000</ele>
        <time>2008-03-09T03:38:31Z</time>
      </trkpt>
      <trkpt lat="14.25196500" lon="13.82037333">
        <ele>256.70000</ele>
        <time>2008-03-09T03:39:04Z</time>
      </trkpt>
      <trkpt lat="14.25054666" lon="13.81345000">
        <ele>304.80000</ele>
        <time>2008-03-09T03:43:38Z</time>
      </trkpt>
      <trkpt lat="14.25063833" lon="13.81305500">
        <ele>290.60000</ele>
        <time>2008-03-09T03:43:54Z</time>
      </trkpt>
      <trkpt lat="14.25147833" lon="13.81257166">
        <ele>302.90000</ele>
        <time>2008-03-09T03:44:32Z</time>
      </trkpt>
      <trkpt lat="14.25169666" lon="13.81253833">
        <ele>305.50000</ele>
        <time>2008-03-09T03:44:41Z</time>
      </trkpt>
      <trkpt lat="14.25396500" lon="13.81327333">
        <ele>303.10000</ele>
        <time>2008-03-09T03:46:16Z</time>
      </trkpt>
      <trkpt lat="14.25462166" lon="13.81393833">
        <ele>313.10000</ele>
        <time>2008-03-09T03:46:53Z</time>
      </trkpt>
      <trkpt lat="14.25479166" lon="13.81397000">
        <ele>314.10000</ele>
        <time>2008-03-09T03:47:00Z</time>
      </trkpt>
      <trkpt lat="14.25635666" lon="13.81362333">
        <ele>320.80000</ele>
        <time>2008-03-09T03:48:04Z</time>
      </trkpt>
      <trkpt lat="14.25833500" lon="13.81376166">
        <ele>321.10000</ele>
        <time>2008-03-09T03:49:24Z</time>
      </trkpt>
      <trkpt lat="14.25971166" lon="13.81360500">
        <ele>321.80000</ele>
        <time>2008-03-09T03:50:19Z</time>
      </trkpt>
      <trkpt lat="14.26229833" lon="13.81244500">
        <ele>321.00000</ele>
        <time>2008-03-09T03:52:12Z</time>
      </trkpt>
      <trkpt lat="14.26245333" lon="13.81231000">
        <ele>321.70000</ele>
        <time>2008-03-09T03:52:20Z</time>
      </trkpt>
      <trkpt lat="14.26249833" lon="13.81217500">
        <ele>315.60000</ele>
        <time>2008-03-09T03:52:26Z</time>
      </trkpt>
      <trkpt lat="14.26256833" lon="13.81207666">
        <ele>314.00000</ele>
        <time>2008-03-09T03:52:30Z</time>
      </trkpt>
      <trkpt lat="14.26261500" lon="13.81170666">
        <ele>299.90000</ele>
        <time>2008-03-09T03:52:45Z</time>
      </trkpt>
      <trkpt lat="14.26266166" lon="13.81161000">
        <ele>300.40000</ele>
        <time>2008-03-09T03:52:49Z</time>
      </trkpt>
      <trkpt lat="14.26334833" lon="13.80860500">
        <ele>289.90000</ele>
        <time>2008-03-09T03:54:49Z</time>
      </trkpt>
      <trkpt lat="14.26361333" lon="13.80838333">
        <ele>294.70000</ele>
        <time>2008-03-09T03:55:02Z</time>
      </trkpt>
      <trkpt lat="14.27068833" lon="13.80568333">
        <ele>314.80000</ele>
        <time>2008-03-09T04:00:04Z</time>
      </trkpt>
      <trkpt lat="14.27222666" lon="13.80576166">
        <ele>304.60000</ele>
        <time>2008-03-09T04:01:06Z</time>
      </trkpt>
      <trkpt lat="14.27256666" lon="13.80571166">
        <ele>306.00000</ele>
        <time>2008-03-09T04:01:20Z</time>
      </trkpt>
      <trkpt lat="14.27283333" lon="13.80551500">
        <ele>308.90000</ele>
        <time>2008-03-09T04:01:33Z</time>
      </trkpt>
      <trkpt lat="14.27418833" lon="13.80259333">
        <ele>286.70000</ele>
        <time>2008-03-09T04:03:39Z</time>
      </trkpt>
      <trkpt lat="14.27414000" lon="13.80249833">
        <ele>274.80000</ele>
        <time>2008-03-09T04:03:43Z</time>
      </trkpt>
      <trkpt lat="14.27413666" lon="13.80232166">
        <ele>269.00000</ele>
        <time>2008-03-09T04:03:50Z</time>
      </trkpt>
      <trkpt lat="14.27446000" lon="13.80180500">
        <ele>258.80000</ele>
        <time>2008-03-09T04:04:13Z</time>
      </trkpt>
      <trkpt lat="14.27724166" lon="13.80118666">
        <ele>295.30000</ele>
        <time>2008-03-09T04:06:07Z</time>
      </trkpt>
      <trkpt lat="14.27733833" lon="13.80111666">
        <ele>296.40000</ele>
        <time>2008-03-09T04:06:12Z</time>
      </trkpt>
      <trkpt lat="14.27845500" lon="13.79878166">
        <ele>264.30000</ele>
        <time>2008-03-09T04:07:53Z</time>
      </trkpt>
      <trkpt lat="14.28097333" lon="13.79827833">
        <ele>291.80000</ele>
        <time>2008-03-09T04:09:36Z</time>
      </trkpt>
      <trkpt lat="14.28105666" lon="13.79821666">
        <ele>293.10000</ele>
        <time>2008-03-09T04:09:40Z</time>
      </trkpt>
      <trkpt lat="14.28118166" lon="13.79804166">
        <ele>285.10000</ele>
        <time>2008-03-09T04:09:48Z</time>
      </trkpt>
      <trkpt lat="14.28155666" lon="13.79784000">
        <ele>289.80000</ele>
        <time>2008-03-09T04:10:05Z</time>
      </trkpt>
      <trkpt lat="14.28188833" lon="13.79697000">
        <ele>261.80000</ele>
        <time>2008-03-09T04:10:42Z</time>
      </trkpt>
      <trkpt lat="14.28408833" lon="13.79656000">
        <ele>291.00000</ele>
        <time>2008-03-09T04:12:11Z</time>
      </trkpt>
      <trkpt lat="14.28454666" lon="13.79622166">
        <ele>295.20000</ele>
        <time>2008-03-09T04:12:34Z</time>
      </trkpt>
      <trkpt lat="14.28532000" lon="13.79362833">
        <ele>299.10000</ele>
        <time>2008-03-09T04:14:19Z</time>
      </trkpt>
      <trkpt lat="14.28557500" lon="13.79324833">
        <ele>298.20000</ele>
        <time>2008-03-09T04:14:37Z</time>
      </trkpt>
      <trkpt lat="14.28558500" lon="13.79313500">
        <ele>285.10000</ele>
        <time>2008-03-09T04:14:41Z</time>
      </trkpt>
      <trkpt lat="14.28570833" lon="13.79285000">
        <ele>266.80000</ele>
        <time>2008-03-09T04:14:53Z</time>
      </trkpt>
      <trkpt lat="14.28986333" lon="13.78963333">
        <ele>298.80000</ele>
        <time>2008-03-09T04:18:21Z</time>
      </trkpt>
      <trkpt lat="14.28987333" lon="13.78950833">
        <ele>296.20000</ele>
        <time>2008-03-09T04:18:26Z</time>
      </trkpt>
      <trkpt lat="14.29023333" lon="13.78896166">
        <ele>296.60000</ele>
        <time>2008-03-09T04:18:52Z</time>
      </trkpt>
      <trkpt lat="14.29028166" lon="13.78878000">
        <ele>297.60000</ele>
        <time>2008-03-09T04:18:59Z</time>
      </trkpt>
      <trkpt lat="14.29005166" lon="13.78778500">
        <ele>298.80000</ele>
        <time>2008-03-09T04:19:39Z</time>
      </trkpt>
      <trkpt lat="14.28991333" lon="13.78762833">
        <ele>295.40000</ele>
        <time>2008-03-09T04:19:47Z</time>
      </trkpt>
      <trkpt lat="14.28960000" lon="13.78515333">
        <ele>291.80000</ele>
        <time>2008-03-09T04:21:24Z</time>
      </trkpt>
      <trkpt lat="14.28946333" lon="13.78497000">
        <ele>295.50000</ele>
        <time>2008-03-09T04:21:33Z</time>
      </trkpt>
      <trkpt lat="14.28953833" lon="13.78474333">
        <ele>293.60000</ele>
        <time>2008-03-09T04:21:42Z</time>
      </trkpt>
      <trkpt lat="14.28952666" lon="13.78460333">
        <ele>299.30000</ele>
        <time>2008-03-09T04:21:48Z</time>
      </trkpt>
      <trkpt lat="14.28996666" lon="13.78403166">
        <ele>298.50000</ele>
        <time>2008-03-09T04:22:16Z</time>
      </trkpt>
      <trkpt lat="14.29049666" lon="13.78287333">
        <ele>261.80000</ele>
        <time>2008-03-09T04:23:06Z</time>
      </trkpt>
      <trkpt lat="14.29110333" lon="13.78278666">
        <ele>261.10000</ele>
        <time>2008-03-09T04:23:30Z</time>
      </trkpt>
      <trkpt lat="14.29125500" lon="13.78279666">
        <ele>262.00000</ele>
        <time>2008-03-09T04:23:36Z</time>
      </trkpt>
      <trkpt lat="14.29140333" lon="13.78279333">
        <ele>261.80000</ele>
        <time>2008-03-09T04:23:42Z</time>
      </trkpt>
      <trkpt lat="14.29184166" lon="13.78283500">
        <ele>259.10000</ele>
        <time>2008-03-09T04:24:00Z</time>
      </trkpt>
      <trkpt lat="14.29232166" lon="13.78275166">
        <ele>262.10000</ele>
        <time>2008-03-09T04:24:19Z</time>
      </trkpt>
      <trkpt lat="14.29424000" lon="13.78165166">
        <ele>283.30000</ele>
        <time>2008-03-09T04:25:47Z</time>
      </trkpt>
      <trkpt lat="14.29544333" lon="13.77956333">
        <ele>278.50000</ele>
        <time>2008-03-09T04:27:21Z</time>
      </trkpt>
      <trkpt lat="14.29545166" lon="13.77939833">
        <ele>284.30000</ele>
        <time>2008-03-09T04:27:28Z</time>
      </trkpt>
      <trkpt lat="14.29596000" lon="13.77880166">
        <ele>280.50000</ele>
        <time>2008-03-09T04:27:58Z</time>
      </trkpt>
      <trkpt lat="14.29599000" lon="13.77869000">
        <ele>278.90000</ele>
        <time>2008-03-09T04:28:03Z</time>
      </trkpt>
      <trkpt lat="14.29612500" lon="13.77854833">
        <ele>283.10000</ele>
        <time>2008-03-09T04:28:11Z</time>
      </trkpt>
      <trkpt lat="14.29661333" lon="13.77851000">
        <ele>279.40000</ele>
        <time>2008-03-09T04:28:30Z</time>
      </trkpt>
      <trkpt lat="14.29725333" lon="13.77853166">
        <ele>267.20000</ele>
        <time>2008-03-09T04:28:56Z</time>
      </trkpt>
      <trkpt lat="14.29750333" lon="13.77853000">
        <ele>266.00000</ele>
        <time>2008-03-09T04:29:06Z</time>
      </trkpt>
      <trkpt lat="14.29847000" lon="13.77868333">
        <ele>268.20000</ele>
        <time>2008-03-09T04:29:45Z</time>
      </trkpt>
      <trkpt lat="14.30300500" lon="13.77783833">
        <ele>280.80000</ele>
        <time>2008-03-09T04:32:50Z</time>
      </trkpt>
      <trkpt lat="14.30403166" lon="13.77716166">
        <ele>284.70000</ele>
        <time>2008-03-09T04:33:38Z</time>
      </trkpt>
      <trkpt lat="14.30421833" lon="13.77674166">
        <ele>269.80000</ele>
        <time>2008-03-09T04:33:56Z</time>
      </trkpt>
      <trkpt lat="14.30425166" lon="13.77633833">
        <ele>247.60000</ele>
        <time>2008-03-09T04:34:12Z</time>
      </trkpt>
      <trkpt lat="14.30435333" lon="13.77606833">
        <ele>248.30000</ele>
        <time>2008-03-09T04:34:23Z</time>
      </trkpt>
      <trkpt lat="14.30431666" lon="13.77594833">
        <ele>252.90000</ele>
        <time>2008-03-09T04:34:28Z</time>
      </trkpt>
      <trkpt lat="14.30434166" lon="13.77574500">
        <ele>253.50000</ele>
        <time>2008-03-09T04:34:36Z</time>
      </trkpt>
      <trkpt lat="14.30421500" lon="13.77519833">
        <ele>253.30000</ele>
        <time>2008-03-09T04:34:58Z</time>
      </trkpt>
      <trkpt lat="14.30427833" lon="13.77427500">
        <ele>266.90000</ele>
        <time>2008-03-09T04:35:34Z</time>
      </trkpt>
      <trkpt lat="14.30418333" lon="13.77413333">
        <ele>267.20000</ele>
        <time>2008-03-09T04:35:40Z</time>
      </trkpt>
      <trkpt lat="14.30408666" lon="13.77374500">
        <ele>273.60000</ele>
        <time>2008-03-09T04:35:56Z</time>
      </trkpt>
      <trkpt lat="14.30495500" lon="13.77263500">
        <ele>278.00000</ele>
        <time>2008-03-09T04:36:51Z</time>
      </trkpt>
      <trkpt lat="14.30495333" lon="13.77250000">
        <ele>270.30000</ele>
        <time>2008-03-09T04:36:57Z</time>
      </trkpt>
      <trkpt lat="14.30506000" lon="13.77242500">
        <ele>270.10000</ele>
        <time>2008-03-09T04:37:02Z</time>
      </trkpt>
      <trkpt lat="14.30521666" lon="13.77222666">
        <ele>265.90000</ele>
        <time>2008-03-09T04:37:12Z</time>
      </trkpt>
      <trkpt lat="14.30678000" lon="13.77117166">
        <ele>268.10000</ele>
        <time>2008-03-09T04:38:26Z</time>
      </trkpt>
      <trkpt lat="14.30678833" lon="13.77103666">
        <ele>260.40000</ele>
        <time>2008-03-09T04:38:32Z</time>
      </trkpt>
      <trkpt lat="14.30748166" lon="13.77020833">
        <ele>269.80000</ele>
        <time>2008-03-09T04:39:14Z</time>
      </trkpt>
      <trkpt lat="14.30749833" lon="13.77010500">
        <ele>259.20000</ele>
        <time>2008-03-09T04:39:18Z</time>
      </trkpt>
      <trkpt lat="14.31339000" lon="13.76738666">
        <ele>278.90000</ele>
        <time>2008-03-09T04:43:36Z</time>
      </trkpt>
      <trkpt lat="14.31401000" lon="13.76749166">
        <ele>275.20000</ele>
        <time>2008-03-09T04:44:02Z</time>
      </trkpt>
      <trkpt lat="14.31516000" lon="13.76839000">
        <ele>274.80000</ele>
        <time>2008-03-09T04:44:59Z</time>
      </trkpt>
      <trkpt lat="14.31611500" lon="13.76853666">
        <ele>275.30000</ele>
        <time>2008-03-09T04:45:38Z</time>
      </trkpt>
      <trkpt lat="14.31628166" lon="13.76852333">
        <ele>260.20000</ele>
        <time>2008-03-09T04:45:45Z</time>
      </trkpt>
      <trkpt lat="14.31774333" lon="13.76880333">
        <ele>260.70000</ele>
        <time>2008-03-09T04:46:44Z</time>
      </trkpt>
      <trkpt lat="14.31797833" lon="13.76876666">
        <ele>263.10000</ele>
        <time>2008-03-09T04:46:54Z</time>
      </trkpt>
      <trkpt lat="14.31826500" lon="13.76858500">
        <ele>264.30000</ele>
        <time>2008-03-09T04:47:07Z</time>
      </trkpt>
      <trkpt lat="14.31834666" lon="13.76836833">
        <ele>256.50000</ele>
        <time>2008-03-09T04:47:16Z</time>
      </trkpt>
      <trkpt lat="14.31835500" lon="13.76812500">
        <ele>257.90000</ele>
        <time>2008-03-09T04:47:26Z</time>
      </trkpt>
      <trkpt lat="14.31845166" lon="13.76799666">
        <ele>258.00000</ele>
        <time>2008-03-09T04:47:32Z</time>
      </trkpt>
      <trkpt lat="14.31844500" lon="13.76789166">
        <ele>260.10000</ele>
        <time>2008-03-09T04:47:36Z</time>
      </trkpt>
      <trkpt lat="14.31878333" lon="13.76782333">
        <ele>263.50000</ele>
        <time>2008-03-09T04:47:50Z</time>
      </trkpt>
      <trkpt lat="14.31898000" lon="13.76713666">
        <ele>254.80000</ele>
        <time>2008-03-09T04:48:18Z</time>
      </trkpt>
      <trkpt lat="14.32078333" lon="13.76522166">
        <ele>267.80000</ele>
        <time>2008-03-09T04:50:01Z</time>
      </trkpt>
      <trkpt lat="14.32222000" lon="13.76473333">
        <ele>265.30000</ele>
        <time>2008-03-09T04:51:02Z</time>
      </trkpt>
      <trkpt lat="14.32231166" lon="13.76460833">
        <ele>266.00000</ele>
        <time>2008-03-09T04:51:08Z</time>
      </trkpt>
      <trkpt lat="14.32223166" lon="13.76427666">
        <ele>272.40000</ele>
        <time>2008-03-09T04:51:21Z</time>
      </trkpt>
      <trkpt lat="14.32260166" lon="13.76378333">
        <ele>269.30000</ele>
        <time>2008-03-09T04:51:45Z</time>
      </trkpt>
      <trkpt lat="14.32261333" lon="13.76368000">
        <ele>258.80000</ele>
        <time>2008-03-09T04:51:49Z</time>
      </trkpt>
      <trkpt lat="14.32407500" lon="13.76284666">
        <ele>266.70000</ele>
        <time>2008-03-09T04:52:56Z</time>
      </trkpt>
      <trkpt lat="14.32417166" lon="13.76269333">
        <ele>266.40000</ele>
        <time>2008-03-09T04:53:03Z</time>
      </trkpt>
      <trkpt lat="14.32409333" lon="13.76247333">
        <ele>276.90000</ele>
        <time>2008-03-09T04:53:12Z</time>
      </trkpt>
      <trkpt lat="14.32409500" lon="13.76233500">
        <ele>280.10000</ele>
        <time>2008-03-09T04:53:18Z</time>
      </trkpt>
      <trkpt lat="14.32418166" lon="13.76227333">
        <ele>279.90000</ele>
        <time>2008-03-09T04:53:22Z</time>
      </trkpt>
      <trkpt lat="14.32589833" lon="13.76181000">
        <ele>264.80000</ele>
        <time>2008-03-09T04:54:33Z</time>
      </trkpt>
      <trkpt lat="14.32600333" lon="13.76185833">
        <ele>264.50000</ele>
        <time>2008-03-09T04:54:38Z</time>
      </trkpt>
      <trkpt lat="14.32614166" lon="13.76206666">
        <ele>263.30000</ele>
        <time>2008-03-09T04:54:47Z</time>
      </trkpt>
      <trkpt lat="14.32648666" lon="13.76210666">
        <ele>264.20000</ele>
        <time>2008-03-09T04:55:01Z</time>
      </trkpt>
      <trkpt lat="14.32674333" lon="13.76206166">
        <ele>263.90000</ele>
        <time>2008-03-09T04:55:12Z</time>
      </trkpt>
      <trkpt lat="14.32710500" lon="13.76209666">
        <ele>264.20000</ele>
        <time>2008-03-09T04:55:26Z</time>
      </trkpt>
      <trkpt lat="14.32733500" lon="13.76209166">
        <ele>265.20000</ele>
        <time>2008-03-09T04:55:35Z</time>
      </trkpt>
      <trkpt lat="14.32766166" lon="13.76213833">
        <ele>266.30000</ele>
        <time>2008-03-09T04:55:49Z</time>
      </trkpt>
      <trkpt lat="14.32778166" lon="13.76210666">
        <ele>266.20000</ele>
        <time>2008-03-09T04:55:54Z</time>
      </trkpt>
      <trkpt lat="14.32945666" lon="13.76104666">
        <ele>265.70000</ele>
        <time>2008-03-09T04:57:12Z</time>
      </trkpt>
      <trkpt lat="14.33020000" lon="13.76109666">
        <ele>267.30000</ele>
        <time>2008-03-09T04:57:42Z</time>
      </trkpt>
      <trkpt lat="14.33374000" lon="13.76052833">
        <ele>262.80000</ele>
        <time>2008-03-09T05:00:05Z</time>
      </trkpt>
      <trkpt lat="14.33399333" lon="13.76053333">
        <ele>262.70000</ele>
        <time>2008-03-09T05:00:16Z</time>
      </trkpt>
      <trkpt lat="14.33415500" lon="13.76050333">
        <ele>253.20000</ele>
        <time>2008-03-09T05:00:22Z</time>
      </trkpt>
      <trkpt lat="14.33447000" lon="13.76051833">
        <ele>255.80000</ele>
        <time>2008-03-09T05:00:35Z</time>
      </trkpt>
      <trkpt lat="14.33508166" lon="13.76042166">
        <ele>258.70000</ele>
        <time>2008-03-09T05:01:00Z</time>
      </trkpt>
      <trkpt lat="14.33533500" lon="13.76028333">
        <ele>258.60000</ele>
        <time>2008-03-09T05:01:11Z</time>
      </trkpt>
      <trkpt lat="14.33543333" lon="13.76017833">
        <ele>259.40000</ele>
        <time>2008-03-09T05:01:17Z</time>
      </trkpt>
      <trkpt lat="14.33600500" lon="13.75850500">
        <ele>254.60000</ele>
        <time>2008-03-09T05:02:26Z</time>
      </trkpt>
      <trkpt lat="14.33639166" lon="13.75842833">
        <ele>263.70000</ele>
        <time>2008-03-09T05:02:41Z</time>
      </trkpt>
      <trkpt lat="14.33699833" lon="13.75767333">
        <ele>274.90000</ele>
        <time>2008-03-09T05:03:19Z</time>
      </trkpt>
      <trkpt lat="14.33776666" lon="13.75742000">
        <ele>272.20000</ele>
        <time>2008-03-09T05:03:52Z</time>
      </trkpt>
      <trkpt lat="14.33787333" lon="13.75742166">
        <ele>272.00000</ele>
        <time>2008-03-09T05:03:56Z</time>
      </trkpt>
      <trkpt lat="14.33801000" lon="13.75742000">
        <ele>271.40000</ele>
        <time>2008-03-09T05:04:01Z</time>
      </trkpt>
      <trkpt lat="14.33877166" lon="13.75775166">
        <ele>264.60000</ele>
        <time>2008-03-09T05:04:34Z</time>
      </trkpt>
      <trkpt lat="14.33899333" lon="13.75777000">
        <ele>263.20000</ele>
        <time>2008-03-09T05:04:43Z</time>
      </trkpt>
      <trkpt lat="14.34307666" lon="13.75698833">
        <ele>258.00000</ele>
        <time>2008-03-09T05:07:30Z</time>
      </trkpt>
      <trkpt lat="14.34375000" lon="13.75659000">
        <ele>256.80000</ele>
        <time>2008-03-09T05:08:01Z</time>
      </trkpt>
      <trkpt lat="14.34377000" lon="13.75649166">
        <ele>250.20000</ele>
        <time>2008-03-09T05:08:05Z</time>
      </trkpt>
      <trkpt lat="14.34384833" lon="13.75635166">
        <ele>251.10000</ele>
        <time>2008-03-09T05:08:11Z</time>
      </trkpt>
      <trkpt lat="14.34386333" lon="13.75618833">
        <ele>250.20000</ele>
        <time>2008-03-09T05:08:17Z</time>
      </trkpt>
      <trkpt lat="14.34378333" lon="13.75589500">
        <ele>255.10000</ele>
        <time>2008-03-09T05:08:29Z</time>
      </trkpt>
      <trkpt lat="14.34389333" lon="13.75565833">
        <ele>255.20000</ele>
        <time>2008-03-09T05:08:39Z</time>
      </trkpt>
      <trkpt lat="14.34456500" lon="13.75496666">
        <ele>257.40000</ele>
        <time>2008-03-09T05:09:17Z</time>
      </trkpt>
      <trkpt lat="14.34509500" lon="13.75467000">
        <ele>257.80000</ele>
        <time>2008-03-09T05:09:41Z</time>
      </trkpt>
      <trkpt lat="14.34515833" lon="13.75456333">
        <ele>258.30000</ele>
        <time>2008-03-09T05:09:46Z</time>
      </trkpt>
      <trkpt lat="14.34511000" lon="13.75412833">
        <ele>261.40000</ele>
        <time>2008-03-09T05:10:03Z</time>
      </trkpt>
      <trkpt lat="14.34726833" lon="13.75042333">
        <ele>254.90000</ele>
        <time>2008-03-09T05:12:51Z</time>
      </trkpt>
      <trkpt lat="14.34695000" lon="13.74913333">
        <ele>259.70000</ele>
        <time>2008-03-09T05:13:42Z</time>
      </trkpt>
      <trkpt lat="14.34698000" lon="13.74896833">
        <ele>258.90000</ele>
        <time>2008-03-09T05:13:49Z</time>
      </trkpt>
      <trkpt lat="14.34731500" lon="13.74839500">
        <ele>256.30000</ele>
        <time>2008-03-09T05:14:15Z</time>
      </trkpt>
      <trkpt lat="14.34733166" lon="13.74815333">
        <ele>256.10000</ele>
        <time>2008-03-09T05:14:24Z</time>
      </trkpt>
      <trkpt lat="14.34710833" lon="13.74778333">
        <ele>255.30000</ele>
        <time>2008-03-09T05:14:41Z</time>
      </trkpt>
      <trkpt lat="14.34709333" lon="13.74764166">
        <ele>254.80000</ele>
        <time>2008-03-09T05:14:47Z</time>
      </trkpt>
      <trkpt lat="14.34752166" lon="13.74653666">
        <ele>254.40000</ele>
        <time>2008-03-09T05:15:33Z</time>
      </trkpt>
      <trkpt lat="14.34770833" lon="13.74640166">
        <ele>255.10000</ele>
        <time>2008-03-09T05:15:42Z</time>
      </trkpt>
      <trkpt lat="14.34927333" lon="13.74619666">
        <ele>245.80000</ele>
        <time>2008-03-09T05:16:45Z</time>
      </trkpt>
      <trkpt lat="14.34961833" lon="13.74624500">
        <ele>247.50000</ele>
        <time>2008-03-09T05:16:59Z</time>
      </trkpt>
      <trkpt lat="14.35007166" lon="13.74617833">
        <ele>249.70000</ele>
        <time>2008-03-09T05:17:17Z</time>
      </trkpt>
      <trkpt lat="14.35225833" lon="13.74475000">
        <ele>247.80000</ele>
        <time>2008-03-09T05:19:01Z</time>
      </trkpt>
      <trkpt lat="14.35271333" lon="13.74391500">
        <ele>232.10000</ele>
        <time>2008-03-09T05:19:38Z</time>
      </trkpt>
      <trkpt lat="14.35298000" lon="13.74365500">
        <ele>230.00000</ele>
        <time>2008-03-09T05:19:53Z</time>
      </trkpt>
      <trkpt lat="14.35308000" lon="13.74347500">
        <ele>227.40000</ele>
        <time>2008-03-09T05:20:01Z</time>
      </trkpt>
      <trkpt lat="14.35311666" lon="13.74186833">
        <ele>220.90000</ele>
        <time>2008-03-09T05:21:03Z</time>
      </trkpt>
      <trkpt lat="14.35258000" lon="13.74054666">
        <ele>229.80000</ele>
        <time>2008-03-09T05:21:59Z</time>
      </trkpt>
      <trkpt lat="14.35262000" lon="13.74003333">
        <ele>227.30000</ele>
        <time>2008-03-09T05:22:19Z</time>
      </trkpt>
      <trkpt lat="14.35393500" lon="13.73874166">
        <ele>220.60000</ele>
        <time>2008-03-09T05:23:31Z</time>
      </trkpt>
      <trkpt lat="14.35443166" lon="13.73859166">
        <ele>222.10000</ele>
        <time>2008-03-09T05:23:52Z</time>
      </trkpt>
      <trkpt lat="14.35504500" lon="13.73862500">
        <ele>222.80000</ele>
        <time>2008-03-09T05:24:17Z</time>
      </trkpt>
      <trkpt lat="14.35534166" lon="13.73856833">
        <ele>224.30000</ele>
        <time>2008-03-09T05:24:29Z</time>
      </trkpt>
      <trkpt lat="14.35684666" lon="13.73771500">
        <ele>219.70000</ele>
        <time>2008-03-09T05:25:38Z</time>
      </trkpt>
      <trkpt lat="14.35706333" lon="13.73770000">
        <ele>219.30000</ele>
        <time>2008-03-09T05:25:46Z</time>
      </trkpt>
      <trkpt lat="14.35741000" lon="13.73771666">
        <ele>220.10000</ele>
        <time>2008-03-09T05:26:00Z</time>
      </trkpt>
      <trkpt lat="14.35772000" lon="13.73764666">
        <ele>221.10000</ele>
        <time>2008-03-09T05:26:13Z</time>
      </trkpt>
      <trkpt lat="14.35784333" lon="13.73753166">
        <ele>221.80000</ele>
        <time>2008-03-09T05:26:20Z</time>
      </trkpt>
      <trkpt lat="14.35789833" lon="13.73736666">
        <ele>221.70000</ele>
        <time>2008-03-09T05:26:26Z</time>
      </trkpt>
      <trkpt lat="14.35766666" lon="13.73434166">
        <ele>219.90000</ele>
        <time>2008-03-09T05:28:24Z</time>
      </trkpt>
      <trkpt lat="14.35791666" lon="13.73391500">
        <ele>217.90000</ele>
        <time>2008-03-09T05:28:43Z</time>
      </trkpt>
      <trkpt lat="14.36030166" lon="13.73233333">
        <ele>218.60000</ele>
        <time>2008-03-09T05:30:37Z</time>
      </trkpt>
      <trkpt lat="14.36035666" lon="13.73209833">
        <ele>217.90000</ele>
        <time>2008-03-09T05:30:46Z</time>
      </trkpt>
      <trkpt lat="14.36023500" lon="13.73094166">
        <ele>218.10000</ele>
        <time>2008-03-09T05:31:31Z</time>
      </trkpt>
      <trkpt lat="14.36057833" lon="13.73011000">
        <ele>216.80000</ele>
        <time>2008-03-09T05:32:06Z</time>
      </trkpt>
      <trkpt lat="14.36697500" lon="13.72084833">
        <ele>212.80000</ele>
        <time>2008-03-09T05:39:27Z</time>
      </trkpt>
      <trkpt lat="14.36698666" lon="13.72045666">
        <ele>213.10000</ele>
        <time>2008-03-09T05:39:43Z</time>
      </trkpt>
      <trkpt lat="14.36606166" lon="13.71707666">
        <ele>213.50000</ele>
        <time>2008-03-09T05:41:59Z</time>
      </trkpt>
      <trkpt lat="14.36646833" lon="13.71613500">
        <ele>212.30000</ele>
        <time>2008-03-09T05:42:39Z</time>
      </trkpt>
      <trkpt lat="14.36611500" lon="13.71078833">
        <ele>217.00000</ele>
        <time>2008-03-09T05:46:07Z</time>
      </trkpt>
      <trkpt lat="14.36648000" lon="13.70974166">
        <ele>212.20000</ele>
        <time>2008-03-09T05:46:50Z</time>
      </trkpt>
      <trkpt lat="14.36774000" lon="13.70858666">
        <ele>208.70000</ele>
        <time>2008-03-09T05:47:57Z</time>
      </trkpt>
      <trkpt lat="14.36855833" lon="13.70701666">
        <ele>205.10000</ele>
        <time>2008-03-09T05:49:06Z</time>
      </trkpt>
      <trkpt lat="14.37017666" lon="13.70559333">
        <ele>207.10000</ele>
        <time>2008-03-09T05:50:31Z</time>
      </trkpt>
      <trkpt lat="14.37095833" lon="13.70352666">
        <ele>205.70000</ele>
        <time>2008-03-09T05:51:57Z</time>
      </trkpt>
      <trkpt lat="14.37191833" lon="13.70230166">
        <ele>206.50000</ele>
        <time>2008-03-09T05:52:59Z</time>
      </trkpt>
      <trkpt lat="14.37197166" lon="13.70200500">
        <ele>207.40000</ele>
        <time>2008-03-09T05:53:10Z</time>
      </trkpt>
      <trkpt lat="14.37175333" lon="13.70043833">
        <ele>208.50000</ele>
        <time>2008-03-09T05:54:12Z</time>
      </trkpt>
      <trkpt lat="14.37258833" lon="13.69799166">
        <ele>204.90000</ele>
        <time>2008-03-09T05:55:52Z</time>
      </trkpt>
      <trkpt lat="14.37806166" lon="13.69151666">
        <ele>161.60000</ele>
        <time>2008-03-09T06:01:25Z</time>
      </trkpt>
      <trkpt lat="14.37795166" lon="13.69150000">
        <ele>139.70000</ele>
        <time>2008-03-09T06:01:30Z</time>
      </trkpt>
      <trkpt lat="14.37866166" lon="13.69113000">
        <ele>137.60000</ele>
        <time>2008-03-09T06:02:02Z</time>
      </trkpt>
      <trkpt lat="14.37939833" lon="13.69007166">
        <ele>137.40000</ele>
        <time>2008-03-09T06:02:52Z</time>
      </trkpt>
      <trkpt lat="14.37954666" lon="13.69003166">
        <ele>136.50000</ele>
        <time>2008-03-09T06:02:58Z</time>
      </trkpt>
      <trkpt lat="14.37979333" lon="13.69007333">
        <ele>135.00000</ele>
        <time>2008-03-09T06:03:08Z</time>
      </trkpt>
      <trkpt lat="14.38016666" lon="13.69025833">
        <ele>134.10000</ele>
        <time>2008-03-09T06:03:25Z</time>
      </trkpt>
      <trkpt lat="14.38033333" lon="13.69027833">
        <ele>134.20000</ele>
        <time>2008-03-09T06:03:32Z</time>
      </trkpt>
      <trkpt lat="14.38108166" lon="13.69003333">
        <ele>131.30000</ele>
        <time>2008-03-09T06:04:03Z</time>
      </trkpt>
      <trkpt lat="14.38157333" lon="13.69012666">
        <ele>132.60000</ele>
        <time>2008-03-09T06:04:23Z</time>
      </trkpt>
      <trkpt lat="14.38172833" lon="13.69010333">
        <ele>132.30000</ele>
        <time>2008-03-09T06:04:29Z</time>
      </trkpt>
      <trkpt lat="14.38379000" lon="13.68873166">
        <ele>130.90000</ele>
        <time>2008-03-09T06:06:08Z</time>
      </trkpt>
      <trkpt lat="14.39644666" lon="13.66284000">
        <ele>126.30000</ele>
        <time>2008-03-09T06:24:52Z</time>
      </trkpt>
      <trkpt lat="14.39854333" lon="13.65693333">
        <ele>120.50000</ele>
        <time>2008-03-09T06:28:56Z</time>
      </trkpt>
      <trkpt lat="14.39857166" lon="13.65648333">
        <ele>120.20000</ele>
        <time>2008-03-09T06:29:14Z</time>
      </trkpt>
      <trkpt lat="14.39971666" lon="13.65336500">
        <ele>121.10000</ele>
        <time>2008-03-09T06:31:23Z</time>
      </trkpt>
      <trkpt lat="14.40021666" lon="13.65275166">
        <ele>121.80000</ele>
        <time>2008-03-09T06:31:54Z</time>
      </trkpt>
      <trkpt lat="14.40165000" lon="13.64430500">
        <ele>119.70000</ele>
        <time>2008-03-09T06:37:26Z</time>
      </trkpt>
      <trkpt lat="14.40782500" lon="13.63916500">
        <ele>115.30000</ele>
        <time>2008-03-09T06:42:44Z</time>
      </trkpt>
      <trkpt lat="14.41057166" lon="13.63192000">
        <ele>116.00000</ele>
        <time>2008-03-09T06:47:46Z</time>
      </trkpt>
      <trkpt lat="14.41304500" lon="13.63018000">
        <ele>115.70000</ele>
        <time>2008-03-09T06:49:45Z</time>
      </trkpt>
      <trkpt lat="14.41537666" lon="13.62551166">
        <ele>115.80000</ele>
        <time>2008-03-09T06:53:09Z</time>
      </trkpt>
      <trkpt lat="14.41549666" lon="13.62479666">
        <ele>114.40000</ele>
        <time>2008-03-09T06:53:37Z</time>
      </trkpt>
      <trkpt lat="14.41546500" lon="13.62453833">
        <ele>115.30000</ele>
        <time>2008-03-09T06:53:47Z</time>
      </trkpt>
      <trkpt lat="14.41501333" lon="13.62354333">
        <ele>140.70000</ele>
        <time>2008-03-09T06:54:30Z</time>
      </trkpt>
      <trkpt lat="14.41596000" lon="13.61783833">
        <ele>125.50000</ele>
        <time>2008-03-09T06:58:14Z</time>
      </trkpt>
      <trkpt lat="14.41523333" lon="13.61499166">
        <ele>125.60000</ele>
        <time>2008-03-09T07:00:08Z</time>
      </trkpt>
      <trkpt lat="14.41398666" lon="13.61341500">
        <ele>146.30000</ele>
        <time>2008-03-09T07:01:27Z</time>
      </trkpt>
      <trkpt lat="14.41399833" lon="13.61330000">
        <ele>206.70000</ele>
        <time>2008-03-09T07:01:32Z</time>
      </trkpt>
      <trkpt lat="14.41389666" lon="13.61322833">
        <ele>177.40000</ele>
        <time>2008-03-09T07:01:37Z</time>
      </trkpt>
      <trkpt lat="14.41283166" lon="13.61175500">
        <ele>245.60000</ele>
        <time>2008-03-09T07:02:48Z</time>
      </trkpt>
    </trkseg>
    <trkseg>
      <trkpt lat="14.41186000" lon="13.60465500">
        <ele>0.0000000</ele>
      </trkpt>
    </trkseg>
  </trk>
</gpx>

